sensor_id;sensor_type;location;lat;lon;timestamp;P1;durP1;ratioP1;P2;durP2;ratioP2
59418;SDS011;45224;50.904;6.038;2022-08-01T00:00:00;2.95;;;2.00;;
59418;SDS011;45224;50.904;6.038;2022-08-01T00:01:35;2.53;;;1.80;;
59418;SDS011;45224;50.904;6.038;2022-08-01T00:03:06;2.95;;;2.10;;
59418;SDS011;45224;50.904;6.038;2022-08-01T00:04:36;2.58;;;1.90;;
59418;SDS011;45224;50.904;6.038;2022-08-01T00:06:06;2.92;;;1.95;;
59418;SDS011;45224;50.904;6.038;2022-08-01T00:07:37;3.35;;;1.80;;
59418;SDS011;45224;50.904;6.038;2022-08-01T00:09:08;2.28;;;1.65;;
59418;SDS011;45224;50.904;6.038;2022-08-01T00:10:38;2.33;;;1.80;;
59418;SDS011;45224;50.904;6.038;2022-08-01T00:12:08;3.73;;;1.73;;
59418;SDS011;45224;50.904;6.038;2022-08-01T00:13:39;2.10;;;1.60;;
59418;SDS011;45224;50.904;6.038;2022-08-01T00:15:11;6.17;;;2.00;;
59418;SDS011;45224;50.904;6.038;2022-08-01T00:16:42;4.78;;;1.88;;
59418;SDS011;45224;50.904;6.038;2022-08-01T00:18:13;3.25;;;1.90;;
59418;SDS011;45224;50.904;6.038;2022-08-01T00:19:43;2.23;;;1.90;;
59418;SDS011;45224;50.904;6.038;2022-08-01T00:21:14;3.90;;;2.10;;
59418;SDS011;45224;50.904;6.038;2022-08-01T00:22:44;2.55;;;1.90;;
59418;SDS011;45224;50.904;6.038;2022-08-01T00:24:15;2.10;;;1.67;;
59418;SDS011;45224;50.904;6.038;2022-08-01T00:25:45;2.92;;;1.90;;
59418;SDS011;45224;50.904;6.038;2022-08-01T00:27:16;4.30;;;2.17;;
59418;SDS011;45224;50.904;6.038;2022-08-01T00:28:46;3.20;;;2.00;;
59418;SDS011;45224;50.904;6.038;2022-08-01T00:30:16;3.37;;;1.80;;
59418;SDS011;45224;50.904;6.038;2022-08-01T00:31:47;5.07;;;1.80;;
59418;SDS011;45224;50.904;6.038;2022-08-01T00:33:17;2.85;;;1.90;;
59418;SDS011;45224;50.904;6.038;2022-08-01T00:34:48;4.30;;;2.20;;
59418;SDS011;45224;50.904;6.038;2022-08-01T00:36:18;3.92;;;2.10;;
59418;SDS011;45224;50.904;6.038;2022-08-01T00:37:49;4.10;;;2.22;;
59418;SDS011;45224;50.904;6.038;2022-08-01T00:39:19;3.40;;;1.90;;
59418;SDS011;45224;50.904;6.038;2022-08-01T00:40:50;3.33;;;1.97;;
59418;SDS011;45224;50.904;6.038;2022-08-01T00:42:20;2.83;;;2.03;;
59418;SDS011;45224;50.904;6.038;2022-08-01T00:43:51;3.72;;;1.85;;
59418;SDS011;45224;50.904;6.038;2022-08-01T00:45:21;3.33;;;2.25;;
59418;SDS011;45224;50.904;6.038;2022-08-01T00:46:52;5.03;;;2.00;;
59418;SDS011;45224;50.904;6.038;2022-08-01T00:48:22;2.97;;;1.87;;
59418;SDS011;45224;50.904;6.038;2022-08-01T00:49:53;4.03;;;2.20;;
59418;SDS011;45224;50.904;6.038;2022-08-01T00:51:23;3.03;;;1.95;;
59418;SDS011;45224;50.904;6.038;2022-08-01T00:54:25;3.13;;;1.90;;
59418;SDS011;45224;50.904;6.038;2022-08-01T00:55:56;3.30;;;1.80;;
59418;SDS011;45224;50.904;6.038;2022-08-01T00:57:27;2.90;;;1.70;;
59418;SDS011;45224;50.904;6.038;2022-08-01T00:58:58;3.15;;;2.00;;
59418;SDS011;45224;50.904;6.038;2022-08-01T01:00:29;4.10;;;1.88;;
59418;SDS011;45224;50.904;6.038;2022-08-01T01:01:59;4.30;;;1.88;;
59418;SDS011;45224;50.904;6.038;2022-08-01T01:03:30;2.30;;;1.80;;
59418;SDS011;45224;50.904;6.038;2022-08-01T01:05:01;5.13;;;1.88;;
59418;SDS011;45224;50.904;6.038;2022-08-01T01:06:48;2.65;;;1.80;;
59418;SDS011;45224;50.904;6.038;2022-08-01T01:08:30;4.55;;;1.83;;
59418;SDS011;45224;50.904;6.038;2022-08-01T01:10:09;4.72;;;1.83;;
59418;SDS011;45224;50.904;6.038;2022-08-01T01:11:47;3.55;;;1.90;;
59418;SDS011;45224;50.904;6.038;2022-08-01T01:13:57;4.10;;;1.80;;
59418;SDS011;45224;50.904;6.038;2022-08-01T01:16:56;3.17;;;1.70;;
59418;SDS011;45224;50.904;6.038;2022-08-01T01:20:30;2.78;;;1.75;;
59418;SDS011;45224;50.904;6.038;2022-08-01T01:22:21;3.63;;;1.92;;
59418;SDS011;45224;50.904;6.038;2022-08-01T01:28:08;2.42;;;1.75;;
59418;SDS011;45224;50.904;6.038;2022-08-01T01:29:48;3.50;;;1.75;;
59418;SDS011;45224;50.904;6.038;2022-08-01T01:31:22;5.05;;;1.67;;
59418;SDS011;45224;50.904;6.038;2022-08-01T01:32:55;2.95;;;1.75;;
59418;SDS011;45224;50.904;6.038;2022-08-01T01:34:30;3.25;;;1.60;;
59418;SDS011;45224;50.904;6.038;2022-08-01T01:36:05;5.25;;;2.15;;
59418;SDS011;45224;50.904;6.038;2022-08-01T01:37:38;2.90;;;1.70;;
59418;SDS011;45224;50.904;6.038;2022-08-01T01:39:10;3.13;;;2.03;;
59418;SDS011;45224;50.904;6.038;2022-08-01T01:40:41;2.65;;;1.83;;
59418;SDS011;45224;50.904;6.038;2022-08-01T01:42:14;4.75;;;2.05;;
59418;SDS011;45224;50.904;6.038;2022-08-01T01:43:47;2.90;;;1.90;;
59418;SDS011;45224;50.904;6.038;2022-08-01T01:45:20;2.83;;;1.85;;
59418;SDS011;45224;50.904;6.038;2022-08-01T01:46:53;2.20;;;1.63;;
59418;SDS011;45224;50.904;6.038;2022-08-01T01:48:26;3.35;;;1.83;;
59418;SDS011;45224;50.904;6.038;2022-08-01T01:49:58;5.22;;;2.10;;
59418;SDS011;45224;50.904;6.038;2022-08-01T01:53:01;3.25;;;1.85;;
59418;SDS011;45224;50.904;6.038;2022-08-01T01:54:38;4.00;;;2.10;;
59418;SDS011;45224;50.904;6.038;2022-08-01T01:56:12;3.72;;;1.75;;
59418;SDS011;45224;50.904;6.038;2022-08-01T01:57:46;4.60;;;1.73;;
59418;SDS011;45224;50.904;6.038;2022-08-01T01:59:19;3.45;;;1.90;;
59418;SDS011;45224;50.904;6.038;2022-08-01T02:00:55;4.55;;;1.73;;
59418;SDS011;45224;50.904;6.038;2022-08-01T02:02:28;2.97;;;1.90;;
59418;SDS011;45224;50.904;6.038;2022-08-01T02:03:59;3.83;;;1.98;;
59418;SDS011;45224;50.904;6.038;2022-08-01T02:05:33;2.85;;;2.00;;
59418;SDS011;45224;50.904;6.038;2022-08-01T02:07:05;3.05;;;1.90;;
59418;SDS011;45224;50.904;6.038;2022-08-01T02:08:38;3.58;;;1.80;;
59418;SDS011;45224;50.904;6.038;2022-08-01T02:10:10;4.25;;;2.05;;
59418;SDS011;45224;50.904;6.038;2022-08-01T02:11:42;2.88;;;1.70;;
59418;SDS011;45224;50.904;6.038;2022-08-01T02:13:14;3.85;;;1.73;;
59418;SDS011;45224;50.904;6.038;2022-08-01T02:14:46;3.17;;;1.90;;
59418;SDS011;45224;50.904;6.038;2022-08-01T02:16:18;3.50;;;1.80;;
59418;SDS011;45224;50.904;6.038;2022-08-01T02:17:51;4.47;;;2.20;;
59418;SDS011;45224;50.904;6.038;2022-08-01T02:19:24;5.32;;;1.90;;
59418;SDS011;45224;50.904;6.038;2022-08-01T02:20:55;3.08;;;1.90;;
59418;SDS011;45224;50.904;6.038;2022-08-01T02:22:39;4.28;;;1.90;;
59418;SDS011;45224;50.904;6.038;2022-08-01T02:24:13;2.65;;;1.42;;
59418;SDS011;45224;50.904;6.038;2022-08-01T02:25:50;3.35;;;1.83;;
59418;SDS011;45224;50.904;6.038;2022-08-01T02:29:21;2.95;;;1.67;;
59418;SDS011;45224;50.904;6.038;2022-08-01T02:30:59;4.97;;;2.15;;
59418;SDS011;45224;50.904;6.038;2022-08-01T02:32:36;4.38;;;1.90;;
59418;SDS011;45224;50.904;6.038;2022-08-01T02:34:10;2.78;;;1.77;;
59418;SDS011;45224;50.904;6.038;2022-08-01T02:35:46;2.25;;;2.00;;
59418;SDS011;45224;50.904;6.038;2022-08-01T02:37:19;4.35;;;2.22;;
59418;SDS011;45224;50.904;6.038;2022-08-01T02:38:51;3.63;;;1.90;;
59418;SDS011;45224;50.904;6.038;2022-08-01T02:40:26;4.75;;;1.88;;
59418;SDS011;45224;50.904;6.038;2022-08-01T02:41:59;3.60;;;1.85;;
59418;SDS011;45224;50.904;6.038;2022-08-01T02:43:33;3.65;;;1.90;;
59418;SDS011;45224;50.904;6.038;2022-08-01T02:45:06;2.28;;;1.85;;
59418;SDS011;45224;50.904;6.038;2022-08-01T02:46:41;5.03;;;2.15;;
59418;SDS011;45224;50.904;6.038;2022-08-01T02:48:19;3.72;;;2.35;;
59418;SDS011;45224;50.904;6.038;2022-08-01T02:49:52;3.63;;;1.90;;
59418;SDS011;45224;50.904;6.038;2022-08-01T02:51:23;3.47;;;1.90;;
59418;SDS011;45224;50.904;6.038;2022-08-01T02:52:56;3.97;;;2.00;;
59418;SDS011;45224;50.904;6.038;2022-08-01T02:54:28;3.50;;;1.80;;
59418;SDS011;45224;50.904;6.038;2022-08-01T02:56:01;3.65;;;2.00;;
59418;SDS011;45224;50.904;6.038;2022-08-01T02:57:34;4.28;;;1.77;;
59418;SDS011;45224;50.904;6.038;2022-08-01T02:59:09;4.38;;;2.17;;
59418;SDS011;45224;50.904;6.038;2022-08-01T03:00:43;2.88;;;1.88;;
59418;SDS011;45224;50.904;6.038;2022-08-01T03:02:16;3.80;;;2.03;;
59418;SDS011;45224;50.904;6.038;2022-08-01T03:03:47;2.53;;;1.83;;
59418;SDS011;45224;50.904;6.038;2022-08-01T03:05:17;5.28;;;2.00;;
59418;SDS011;45224;50.904;6.038;2022-08-01T03:06:48;5.88;;;1.88;;
59418;SDS011;45224;50.904;6.038;2022-08-01T03:08:20;2.90;;;1.90;;
59418;SDS011;45224;50.904;6.038;2022-08-01T03:09:53;2.58;;;2.00;;
59418;SDS011;45224;50.904;6.038;2022-08-01T03:11:24;2.88;;;1.92;;
59418;SDS011;45224;50.904;6.038;2022-08-01T03:12:57;4.68;;;2.30;;
59418;SDS011;45224;50.904;6.038;2022-08-01T03:14:30;3.15;;;2.08;;
59418;SDS011;45224;50.904;6.038;2022-08-01T03:16:05;4.38;;;2.25;;
59418;SDS011;45224;50.904;6.038;2022-08-01T03:17:36;4.32;;;2.10;;
59418;SDS011;45224;50.904;6.038;2022-08-01T03:19:11;3.83;;;2.20;;
59418;SDS011;45224;50.904;6.038;2022-08-01T03:20:42;3.10;;;2.40;;
59418;SDS011;45224;50.904;6.038;2022-08-01T03:22:15;3.13;;;2.30;;
59418;SDS011;45224;50.904;6.038;2022-08-01T03:23:47;6.25;;;2.28;;
59418;SDS011;45224;50.904;6.038;2022-08-01T03:25:19;4.20;;;2.35;;
59418;SDS011;45224;50.904;6.038;2022-08-01T03:26:52;6.45;;;2.25;;
59418;SDS011;45224;50.904;6.038;2022-08-01T03:28:23;4.95;;;2.22;;
59418;SDS011;45224;50.904;6.038;2022-08-01T03:29:55;3.92;;;2.53;;
59418;SDS011;45224;50.904;6.038;2022-08-01T03:31:28;4.28;;;2.53;;
59418;SDS011;45224;50.904;6.038;2022-08-01T03:33:01;4.38;;;2.33;;
59418;SDS011;45224;50.904;6.038;2022-08-01T03:34:32;3.85;;;2.45;;
59418;SDS011;45224;50.904;6.038;2022-08-01T03:36:03;5.35;;;2.42;;
59418;SDS011;45224;50.904;6.038;2022-08-01T03:37:41;2.92;;;2.45;;
59418;SDS011;45224;50.904;6.038;2022-08-01T03:39:14;6.68;;;2.60;;
59418;SDS011;45224;50.904;6.038;2022-08-01T03:40:48;4.60;;;2.17;;
59418;SDS011;45224;50.904;6.038;2022-08-01T03:42:24;5.78;;;2.38;;
59418;SDS011;45224;50.904;6.038;2022-08-01T03:44:02;5.80;;;2.95;;
59418;SDS011;45224;50.904;6.038;2022-08-01T03:45:36;5.63;;;2.63;;
59418;SDS011;45224;50.904;6.038;2022-08-01T03:47:10;4.35;;;2.45;;
59418;SDS011;45224;50.904;6.038;2022-08-01T03:48:43;3.88;;;2.40;;
59418;SDS011;45224;50.904;6.038;2022-08-01T03:50:19;4.82;;;2.67;;
59418;SDS011;45224;50.904;6.038;2022-08-01T03:51:51;5.93;;;2.70;;
59418;SDS011;45224;50.904;6.038;2022-08-01T03:53:24;4.40;;;2.50;;
59418;SDS011;45224;50.904;6.038;2022-08-01T03:54:59;3.95;;;2.25;;
59418;SDS011;45224;50.904;6.038;2022-08-01T03:56:35;4.13;;;2.30;;
59418;SDS011;45224;50.904;6.038;2022-08-01T03:58:07;4.30;;;3.17;;
59418;SDS011;45224;50.904;6.038;2022-08-01T03:59:38;7.93;;;2.63;;
59418;SDS011;45224;50.904;6.038;2022-08-01T04:02:40;5.43;;;2.37;;
59418;SDS011;45224;50.904;6.038;2022-08-01T04:04:12;4.45;;;2.50;;
59418;SDS011;45224;50.904;6.038;2022-08-01T04:07:23;3.70;;;2.70;;
59418;SDS011;45224;50.904;6.038;2022-08-01T04:08:55;5.18;;;2.40;;
59418;SDS011;45224;50.904;6.038;2022-08-01T04:10:26;4.73;;;2.60;;
59418;SDS011;45224;50.904;6.038;2022-08-01T04:11:57;6.05;;;2.50;;
59418;SDS011;45224;50.904;6.038;2022-08-01T04:13:29;3.53;;;2.33;;
59418;SDS011;45224;50.904;6.038;2022-08-01T04:15:03;3.88;;;2.35;;
59418;SDS011;45224;50.904;6.038;2022-08-01T04:16:34;5.35;;;2.35;;
59418;SDS011;45224;50.904;6.038;2022-08-01T04:18:05;5.88;;;2.65;;
59418;SDS011;45224;50.904;6.038;2022-08-01T04:19:36;5.22;;;2.58;;
59418;SDS011;45224;50.904;6.038;2022-08-01T04:21:07;3.63;;;2.30;;
59418;SDS011;45224;50.904;6.038;2022-08-01T04:22:37;5.63;;;2.43;;
59418;SDS011;45224;50.904;6.038;2022-08-01T04:24:12;6.45;;;2.47;;
59418;SDS011;45224;50.904;6.038;2022-08-01T04:25:46;4.82;;;2.35;;
59418;SDS011;45224;50.904;6.038;2022-08-01T04:27:22;5.70;;;2.42;;
59418;SDS011;45224;50.904;6.038;2022-08-01T04:28:55;5.13;;;2.40;;
59418;SDS011;45224;50.904;6.038;2022-08-01T04:30:27;3.95;;;2.30;;
59418;SDS011;45224;50.904;6.038;2022-08-01T04:31:59;6.55;;;2.70;;
59418;SDS011;45224;50.904;6.038;2022-08-01T04:33:32;4.40;;;2.40;;
59418;SDS011;45224;50.904;6.038;2022-08-01T04:35:06;2.55;;;2.30;;
59418;SDS011;45224;50.904;6.038;2022-08-01T04:36:39;6.10;;;2.75;;
59418;SDS011;45224;50.904;6.038;2022-08-01T04:38:12;3.13;;;2.15;;
59418;SDS011;45224;50.904;6.038;2022-08-01T04:39:47;4.38;;;2.50;;
59418;SDS011;45224;50.904;6.038;2022-08-01T04:41:18;6.25;;;2.70;;
59418;SDS011;45224;50.904;6.038;2022-08-01T04:42:50;6.57;;;2.42;;
59418;SDS011;45224;50.904;6.038;2022-08-01T04:44:20;3.80;;;2.35;;
59418;SDS011;45224;50.904;6.038;2022-08-01T04:45:51;5.28;;;2.45;;
59418;SDS011;45224;50.904;6.038;2022-08-01T04:47:22;6.03;;;2.60;;
59418;SDS011;45224;50.904;6.038;2022-08-01T04:48:53;5.53;;;2.95;;
59418;SDS011;45224;50.904;6.038;2022-08-01T04:50:25;5.15;;;3.00;;
59418;SDS011;45224;50.904;6.038;2022-08-01T04:51:56;5.32;;;2.95;;
59418;SDS011;45224;50.904;6.038;2022-08-01T04:53:33;8.20;;;3.42;;
59418;SDS011;45224;50.904;6.038;2022-08-01T04:55:04;5.03;;;3.03;;
59418;SDS011;45224;50.904;6.038;2022-08-01T04:56:36;9.20;;;3.92;;
59418;SDS011;45224;50.904;6.038;2022-08-01T04:58:06;8.03;;;4.17;;
59418;SDS011;45224;50.904;6.038;2022-08-01T04:59:40;8.20;;;4.00;;
59418;SDS011;45224;50.904;6.038;2022-08-01T05:01:13;7.72;;;3.90;;
59418;SDS011;45224;50.904;6.038;2022-08-01T05:02:43;9.40;;;4.28;;
59418;SDS011;45224;50.904;6.038;2022-08-01T05:04:14;6.22;;;4.00;;
59418;SDS011;45224;50.904;6.038;2022-08-01T05:05:44;6.73;;;3.53;;
59418;SDS011;45224;50.904;6.038;2022-08-01T05:07:15;8.35;;;3.65;;
59418;SDS011;45224;50.904;6.038;2022-08-01T05:08:45;9.88;;;4.00;;
59418;SDS011;45224;50.904;6.038;2022-08-01T05:10:16;7.70;;;3.93;;
59418;SDS011;45224;50.904;6.038;2022-08-01T05:11:46;6.13;;;3.67;;
59418;SDS011;45224;50.904;6.038;2022-08-01T05:13:17;8.40;;;4.38;;
59418;SDS011;45224;50.904;6.038;2022-08-01T05:14:48;6.30;;;3.90;;
59418;SDS011;45224;50.904;6.038;2022-08-01T05:16:19;7.37;;;3.83;;
59418;SDS011;45224;50.904;6.038;2022-08-01T05:17:49;5.20;;;3.23;;
59418;SDS011;45224;50.904;6.038;2022-08-01T05:19:20;8.07;;;3.63;;
59418;SDS011;45224;50.904;6.038;2022-08-01T05:20:51;6.00;;;3.85;;
59418;SDS011;45224;50.904;6.038;2022-08-01T05:22:21;6.00;;;3.90;;
59418;SDS011;45224;50.904;6.038;2022-08-01T05:23:52;6.15;;;3.50;;
59418;SDS011;45224;50.904;6.038;2022-08-01T05:25:22;4.75;;;3.75;;
59418;SDS011;45224;50.904;6.038;2022-08-01T05:26:54;11.25;;;4.05;;
59418;SDS011;45224;50.904;6.038;2022-08-01T05:28:26;8.70;;;3.85;;
59418;SDS011;45224;50.904;6.038;2022-08-01T05:29:56;8.50;;;4.23;;
59418;SDS011;45224;50.904;6.038;2022-08-01T05:31:27;7.53;;;3.55;;
59418;SDS011;45224;50.904;6.038;2022-08-01T05:32:58;7.50;;;4.00;;
59418;SDS011;45224;50.904;6.038;2022-08-01T05:34:28;8.73;;;4.03;;
59418;SDS011;45224;50.904;6.038;2022-08-01T05:35:58;9.33;;;4.37;;
59418;SDS011;45224;50.904;6.038;2022-08-01T05:37:29;9.30;;;4.35;;
59418;SDS011;45224;50.904;6.038;2022-08-01T05:38:59;6.50;;;3.92;;
59418;SDS011;45224;50.904;6.038;2022-08-01T05:40:30;7.80;;;4.50;;
59418;SDS011;45224;50.904;6.038;2022-08-01T05:42:00;6.67;;;4.13;;
59418;SDS011;45224;50.904;6.038;2022-08-01T05:43:31;8.03;;;4.50;;
59418;SDS011;45224;50.904;6.038;2022-08-01T05:45:01;6.63;;;4.57;;
59418;SDS011;45224;50.904;6.038;2022-08-01T05:46:32;9.75;;;4.75;;
59418;SDS011;45224;50.904;6.038;2022-08-01T05:48:03;7.78;;;4.47;;
59418;SDS011;45224;50.904;6.038;2022-08-01T05:49:34;11.77;;;4.60;;
59418;SDS011;45224;50.904;6.038;2022-08-01T05:51:04;7.40;;;4.93;;
59418;SDS011;45224;50.904;6.038;2022-08-01T05:52:35;9.60;;;4.33;;
59418;SDS011;45224;50.904;6.038;2022-08-01T05:54:05;10.07;;;4.87;;
59418;SDS011;45224;50.904;6.038;2022-08-01T05:55:36;6.23;;;4.67;;
59418;SDS011;45224;50.904;6.038;2022-08-01T05:57:06;7.78;;;5.15;;
59418;SDS011;45224;50.904;6.038;2022-08-01T05:58:37;10.80;;;5.78;;
59418;SDS011;45224;50.904;6.038;2022-08-01T06:00:07;14.63;;;6.43;;
59418;SDS011;45224;50.904;6.038;2022-08-01T06:01:41;14.13;;;6.50;;
59418;SDS011;45224;50.904;6.038;2022-08-01T06:03:12;10.67;;;5.83;;
59418;SDS011;45224;50.904;6.038;2022-08-01T06:04:44;9.88;;;6.47;;
59418;SDS011;45224;50.904;6.038;2022-08-01T06:06:14;11.32;;;6.50;;
59418;SDS011;45224;50.904;6.038;2022-08-01T06:07:45;16.30;;;7.03;;
59418;SDS011;45224;50.904;6.038;2022-08-01T06:09:15;11.45;;;7.05;;
59418;SDS011;45224;50.904;6.038;2022-08-01T06:10:46;12.95;;;6.97;;
59418;SDS011;45224;50.904;6.038;2022-08-01T06:12:16;13.03;;;6.90;;
59418;SDS011;45224;50.904;6.038;2022-08-01T06:13:47;14.20;;;7.10;;
59418;SDS011;45224;50.904;6.038;2022-08-01T06:15:17;12.40;;;6.88;;
59418;SDS011;45224;50.904;6.038;2022-08-01T06:16:48;10.85;;;6.90;;
59418;SDS011;45224;50.904;6.038;2022-08-01T06:18:19;12.53;;;6.53;;
59418;SDS011;45224;50.904;6.038;2022-08-01T06:21:20;12.00;;;6.63;;
59418;SDS011;45224;50.904;6.038;2022-08-01T06:22:50;9.40;;;6.30;;
59418;SDS011;45224;50.904;6.038;2022-08-01T06:24:21;15.52;;;6.93;;
59418;SDS011;45224;50.904;6.038;2022-08-01T06:25:53;12.82;;;6.20;;
59418;SDS011;45224;50.904;6.038;2022-08-01T06:27:25;12.98;;;6.45;;
59418;SDS011;45224;50.904;6.038;2022-08-01T06:28:56;12.65;;;7.75;;
59418;SDS011;45224;50.904;6.038;2022-08-01T06:30:26;9.52;;;6.20;;
59418;SDS011;45224;50.904;6.038;2022-08-01T06:31:56;14.80;;;7.50;;
59418;SDS011;45224;50.904;6.038;2022-08-01T06:33:27;12.60;;;6.83;;
59418;SDS011;45224;50.904;6.038;2022-08-01T06:34:58;12.85;;;7.30;;
59418;SDS011;45224;50.904;6.038;2022-08-01T06:36:28;21.13;;;7.22;;
59418;SDS011;45224;50.904;6.038;2022-08-01T06:37:59;11.30;;;7.15;;
59418;SDS011;45224;50.904;6.038;2022-08-01T06:39:29;13.00;;;7.22;;
59418;SDS011;45224;50.904;6.038;2022-08-01T06:40:59;12.93;;;7.07;;
59418;SDS011;45224;50.904;6.038;2022-08-01T06:42:30;18.57;;;8.00;;
59418;SDS011;45224;50.904;6.038;2022-08-01T06:44:07;14.68;;;8.45;;
59418;SDS011;45224;50.904;6.038;2022-08-01T06:45:38;13.38;;;7.55;;
59418;SDS011;45224;50.904;6.038;2022-08-01T06:47:09;14.98;;;7.28;;
59418;SDS011;45224;50.904;6.038;2022-08-01T06:48:40;13.27;;;7.20;;
59418;SDS011;45224;50.904;6.038;2022-08-01T06:50:10;12.48;;;7.55;;
59418;SDS011;45224;50.904;6.038;2022-08-01T06:51:41;12.15;;;6.90;;
59418;SDS011;45224;50.904;6.038;2022-08-01T06:53:12;12.13;;;7.30;;
59418;SDS011;45224;50.904;6.038;2022-08-01T06:54:42;15.20;;;8.13;;
59418;SDS011;45224;50.904;6.038;2022-08-01T06:56:13;18.13;;;8.40;;
59418;SDS011;45224;50.904;6.038;2022-08-01T06:57:47;16.80;;;8.73;;
59418;SDS011;45224;50.904;6.038;2022-08-01T06:59:21;17.13;;;8.57;;
59418;SDS011;45224;50.904;6.038;2022-08-01T07:00:52;16.45;;;9.27;;
59418;SDS011;45224;50.904;6.038;2022-08-01T07:02:23;18.98;;;8.40;;
59418;SDS011;45224;50.904;6.038;2022-08-01T07:03:53;17.23;;;8.73;;
59418;SDS011;45224;50.904;6.038;2022-08-01T07:05:24;17.23;;;9.65;;
59418;SDS011;45224;50.904;6.038;2022-08-01T07:06:55;14.15;;;8.10;;
59418;SDS011;45224;50.904;6.038;2022-08-01T07:08:25;13.05;;;7.60;;
59418;SDS011;45224;50.904;6.038;2022-08-01T07:09:56;16.33;;;8.98;;
59418;SDS011;45224;50.904;6.038;2022-08-01T07:11:27;14.10;;;8.20;;
59418;SDS011;45224;50.904;6.038;2022-08-01T07:12:57;13.80;;;8.40;;
59418;SDS011;45224;50.904;6.038;2022-08-01T07:14:27;12.23;;;7.53;;
59418;SDS011;45224;50.904;6.038;2022-08-01T07:15:58;13.33;;;8.13;;
59418;SDS011;45224;50.904;6.038;2022-08-01T07:17:28;16.42;;;8.45;;
59418;SDS011;45224;50.904;6.038;2022-08-01T07:18:59;16.97;;;9.07;;
59418;SDS011;45224;50.904;6.038;2022-08-01T07:20:29;15.03;;;9.03;;
59418;SDS011;45224;50.904;6.038;2022-08-01T07:22:00;16.40;;;9.05;;
59418;SDS011;45224;50.904;6.038;2022-08-01T07:23:30;14.60;;;8.07;;
59418;SDS011;45224;50.904;6.038;2022-08-01T07:25:02;16.60;;;8.68;;
59418;SDS011;45224;50.904;6.038;2022-08-01T07:26:34;19.65;;;9.20;;
59418;SDS011;45224;50.904;6.038;2022-08-01T07:28:05;17.73;;;9.38;;
59418;SDS011;45224;50.904;6.038;2022-08-01T07:29:35;19.60;;;9.13;;
59418;SDS011;45224;50.904;6.038;2022-08-01T07:31:06;20.13;;;9.80;;
59418;SDS011;45224;50.904;6.038;2022-08-01T07:32:36;16.10;;;9.02;;
59418;SDS011;45224;50.904;6.038;2022-08-01T07:34:07;18.43;;;10.17;;
59418;SDS011;45224;50.904;6.038;2022-08-01T07:35:38;18.48;;;9.20;;
59418;SDS011;45224;50.904;6.038;2022-08-01T07:37:09;14.65;;;9.45;;
59418;SDS011;45224;50.904;6.038;2022-08-01T07:38:39;16.83;;;8.90;;
59418;SDS011;45224;50.904;6.038;2022-08-01T07:40:10;18.08;;;9.30;;
59418;SDS011;45224;50.904;6.038;2022-08-01T07:43:11;13.77;;;8.10;;
59418;SDS011;45224;50.904;6.038;2022-08-01T07:44:42;15.37;;;9.13;;
59418;SDS011;45224;50.904;6.038;2022-08-01T07:46:12;15.60;;;9.15;;
59418;SDS011;45224;50.904;6.038;2022-08-01T07:47:43;13.67;;;8.13;;
59418;SDS011;45224;50.904;6.038;2022-08-01T07:49:13;17.23;;;9.48;;
59418;SDS011;45224;50.904;6.038;2022-08-01T07:50:44;17.20;;;10.30;;
59418;SDS011;45224;50.904;6.038;2022-08-01T07:52:14;18.17;;;10.57;;
59418;SDS011;45224;50.904;6.038;2022-08-01T07:53:45;16.00;;;9.47;;
59418;SDS011;45224;50.904;6.038;2022-08-01T07:55:15;18.40;;;8.83;;
59418;SDS011;45224;50.904;6.038;2022-08-01T07:56:45;16.35;;;9.75;;
59418;SDS011;45224;50.904;6.038;2022-08-01T07:58:16;18.92;;;10.75;;
59418;SDS011;45224;50.904;6.038;2022-08-01T07:59:47;17.92;;;8.95;;
59418;SDS011;45224;50.904;6.038;2022-08-01T08:01:17;15.80;;;9.20;;
59418;SDS011;45224;50.904;6.038;2022-08-01T08:02:49;19.13;;;9.18;;
59418;SDS011;45224;50.904;6.038;2022-08-01T08:04:20;14.68;;;8.55;;
59418;SDS011;45224;50.904;6.038;2022-08-01T08:05:51;14.88;;;8.80;;
59418;SDS011;45224;50.904;6.038;2022-08-01T08:07:22;12.70;;;8.65;;
59418;SDS011;45224;50.904;6.038;2022-08-01T08:08:52;14.15;;;8.50;;
59418;SDS011;45224;50.904;6.038;2022-08-01T08:10:23;13.82;;;9.13;;
59418;SDS011;45224;50.904;6.038;2022-08-01T08:11:54;16.80;;;9.25;;
59418;SDS011;45224;50.904;6.038;2022-08-01T08:13:24;14.70;;;8.65;;
59418;SDS011;45224;50.904;6.038;2022-08-01T08:14:54;16.73;;;8.93;;
59418;SDS011;45224;50.904;6.038;2022-08-01T08:16:25;11.57;;;8.38;;
59418;SDS011;45224;50.904;6.038;2022-08-01T08:17:56;14.80;;;7.88;;
59418;SDS011;45224;50.904;6.038;2022-08-01T08:19:27;13.70;;;7.70;;
59418;SDS011;45224;50.904;6.038;2022-08-01T08:20:57;12.73;;;7.43;;
59418;SDS011;45224;50.904;6.038;2022-08-01T08:22:28;12.55;;;6.80;;
59418;SDS011;45224;50.904;6.038;2022-08-01T08:23:58;11.32;;;7.40;;
59418;SDS011;45224;50.904;6.038;2022-08-01T08:25:47;9.25;;;6.40;;
59418;SDS011;45224;50.904;6.038;2022-08-01T08:27:18;12.25;;;6.75;;
59418;SDS011;45224;50.904;6.038;2022-08-01T08:28:48;13.02;;;7.95;;
59418;SDS011;45224;50.904;6.038;2022-08-01T08:30:19;13.43;;;7.47;;
59418;SDS011;45224;50.904;6.038;2022-08-01T08:31:49;12.68;;;8.20;;
59418;SDS011;45224;50.904;6.038;2022-08-01T08:33:21;13.30;;;7.63;;
59418;SDS011;45224;50.904;6.038;2022-08-01T08:34:52;10.87;;;7.47;;
59418;SDS011;45224;50.904;6.038;2022-08-01T08:36:22;11.57;;;7.27;;
59418;SDS011;45224;50.904;6.038;2022-08-01T08:37:53;13.80;;;7.63;;
59418;SDS011;45224;50.904;6.038;2022-08-01T08:39:23;12.13;;;6.97;;
59418;SDS011;45224;50.904;6.038;2022-08-01T08:40:54;15.90;;;7.68;;
59418;SDS011;45224;50.904;6.038;2022-08-01T08:43:55;15.90;;;8.13;;
59418;SDS011;45224;50.904;6.038;2022-08-01T08:45:28;14.80;;;8.75;;
59418;SDS011;45224;50.904;6.038;2022-08-01T08:47:00;16.48;;;9.63;;
59418;SDS011;45224;50.904;6.038;2022-08-01T08:48:35;15.05;;;7.85;;
59418;SDS011;45224;50.904;6.038;2022-08-01T08:50:07;14.40;;;9.43;;
59418;SDS011;45224;50.904;6.038;2022-08-01T08:51:38;14.57;;;9.57;;
59418;SDS011;45224;50.904;6.038;2022-08-01T08:53:10;10.15;;;7.75;;
59418;SDS011;45224;50.904;6.038;2022-08-01T08:54:42;13.90;;;8.75;;
59418;SDS011;45224;50.904;6.038;2022-08-01T08:56:13;15.98;;;9.27;;
59418;SDS011;45224;50.904;6.038;2022-08-01T08:57:44;11.77;;;7.88;;
59418;SDS011;45224;50.904;6.038;2022-08-01T08:59:15;14.27;;;8.80;;
59418;SDS011;45224;50.904;6.038;2022-08-01T09:00:45;15.57;;;8.02;;
59418;SDS011;45224;50.904;6.038;2022-08-01T09:02:17;13.80;;;7.80;;
59418;SDS011;45224;50.904;6.038;2022-08-01T09:03:47;17.33;;;8.83;;
59418;SDS011;45224;50.904;6.038;2022-08-01T09:05:17;14.82;;;10.13;;
59418;SDS011;45224;50.904;6.038;2022-08-01T09:06:55;21.00;;;10.45;;
59418;SDS011;45224;50.904;6.038;2022-08-01T09:08:25;16.23;;;10.50;;
59418;SDS011;45224;50.904;6.038;2022-08-01T09:09:56;18.38;;;10.05;;
59418;SDS011;45224;50.904;6.038;2022-08-01T09:11:26;13.33;;;9.50;;
59418;SDS011;45224;50.904;6.038;2022-08-01T09:14:43;18.95;;;10.90;;
59418;SDS011;45224;50.904;6.038;2022-08-01T09:16:16;16.13;;;10.25;;
59418;SDS011;45224;50.904;6.038;2022-08-01T09:17:49;18.88;;;11.02;;
59418;SDS011;45224;50.904;6.038;2022-08-01T09:19:20;22.10;;;11.02;;
59418;SDS011;45224;50.904;6.038;2022-08-01T09:20:50;16.05;;;10.00;;
59418;SDS011;45224;50.904;6.038;2022-08-01T09:22:22;15.13;;;9.52;;
59418;SDS011;45224;50.904;6.038;2022-08-01T09:23:54;17.40;;;11.18;;
59418;SDS011;45224;50.904;6.038;2022-08-01T09:25:25;17.67;;;11.45;;
59418;SDS011;45224;50.904;6.038;2022-08-01T09:27:19;19.23;;;11.35;;
59418;SDS011;45224;50.904;6.038;2022-08-01T09:28:50;20.58;;;12.38;;
59418;SDS011;45224;50.904;6.038;2022-08-01T09:30:21;13.27;;;9.40;;
59418;SDS011;45224;50.904;6.038;2022-08-01T09:31:52;18.77;;;12.02;;
59418;SDS011;45224;50.904;6.038;2022-08-01T09:33:22;17.38;;;10.27;;